sensor_id;sensor_type;location;lat;lon;timestamp;pressure;altitude;pressure_sealevel;temperature;humidity
60974;BME280;46846;51.528;5.076;2023-03-20T00:01:19;101493.63;;;8.64;80.75
60974;BME280;46846;51.528;5.076;2023-03-20T00:03:46;101492.75;;;8.63;80.57
60974;BME280;46846;51.528;5.076;2023-03-20T00:06:22;101495.44;;;8.61;80.54
60974;BME280;46846;51.528;5.076;2023-03-20T00:08:50;101496.28;;;8.62;80.44
60974;BME280;46846;51.528;5.076;2023-03-20T00:13:52;101475.22;;;8.54;80.69
60974;BME280;46846;51.528;5.076;2023-03-20T00:16:17;101470.75;;;8.55;80.93
60974;BME280;46846;51.528;5.076;2023-03-20T00:18:43;101466.38;;;8.52;80.88
60974;BME280;46846;51.528;5.076;2023-03-20T00:21:13;101463.78;;;8.47;80.72
60974;BME280;46846;51.528;5.076;2023-03-20T00:23:41;101461.16;;;8.46;80.69
60974;BME280;46846;51.528;5.076;2023-03-20T00:26:15;101459.38;;;8.46;80.59
60974;BME280;46846;51.528;5.076;2023-03-20T00:28:46;101455.88;;;8.44;80.72
60974;BME280;46846;51.528;5.076;2023-03-20T00:31:28;101455.88;;;8.43;80.59
60974;BME280;46846;51.528;5.076;2023-03-20T00:33:57;101450.59;;;8.41;80.95
60974;BME280;46846;51.528;5.076;2023-03-20T00:36:23;101446.19;;;8.40;80.76
60974;BME280;46846;51.528;5.076;2023-03-20T00:41:42;101446.25;;;8.37;80.73
60974;BME280;46846;51.528;5.076;2023-03-20T00:46:57;101460.50;;;8.31;80.72
60974;BME280;46846;51.528;5.076;2023-03-20T00:49:26;101469.38;;;8.29;80.44
60974;BME280;46846;51.528;5.076;2023-03-20T00:51:52;101487.06;;;8.27;80.45
60974;BME280;46846;51.528;5.076;2023-03-20T00:54:18;101480.91;;;8.23;80.52
60974;BME280;46846;51.528;5.076;2023-03-20T00:57:03;101491.53;;;8.23;80.68
60974;BME280;46846;51.528;5.076;2023-03-20T00:59:33;101495.06;;;8.22;80.59
60974;BME280;46846;51.528;5.076;2023-03-20T01:02:00;101499.53;;;8.21;80.40
60974;BME280;46846;51.528;5.076;2023-03-20T01:04:36;101486.28;;;8.18;80.48
60974;BME280;46846;51.528;5.076;2023-03-20T01:07:02;101480.19;;;8.13;80.84
60974;BME280;46846;51.528;5.076;2023-03-20T01:09:27;101467.78;;;8.15;80.85
60974;BME280;46846;51.528;5.076;2023-03-20T01:11:53;101467.84;;;8.11;80.64
60974;BME280;46846;51.528;5.076;2023-03-20T01:14:18;101459.91;;;8.09;80.40
60974;BME280;46846;51.528;5.076;2023-03-20T01:16:43;101466.19;;;8.05;80.63
60974;BME280;46846;51.528;5.076;2023-03-20T01:19:13;101472.38;;;8.02;80.68
60974;BME280;46846;51.528;5.076;2023-03-20T01:21:40;101475.94;;;8.01;80.75
60974;BME280;46846;51.528;5.076;2023-03-20T01:24:05;101471.50;;;8.00;80.55
60974;BME280;46846;51.528;5.076;2023-03-20T01:26:34;101470.66;;;8.00;80.69
60974;BME280;46846;51.528;5.076;2023-03-20T01:29:01;101454.75;;;8.00;80.71
60974;BME280;46846;51.528;5.076;2023-03-20T01:31:27;101460.94;;;7.99;80.62
60974;BME280;46846;51.528;5.076;2023-03-20T01:33:52;101450.34;;;7.99;80.38
60974;BME280;46846;51.528;5.076;2023-03-20T01:36:21;101445.06;;;7.97;80.59
60974;BME280;46846;51.528;5.076;2023-03-20T01:38:56;101436.28;;;7.93;80.50
60974;BME280;46846;51.528;5.076;2023-03-20T01:41:24;101446.88;;;7.93;80.49
60974;BME280;46846;51.528;5.076;2023-03-20T01:43:50;101453.09;;;7.91;80.21
60974;BME280;46846;51.528;5.076;2023-03-20T01:46:26;101450.44;;;7.91;80.54
60974;BME280;46846;51.528;5.076;2023-03-20T01:51:19;101445.22;;;7.85;80.11
60974;BME280;46846;51.528;5.076;2023-03-20T01:54:22;101454.13;;;7.80;80.12
60974;BME280;46846;51.528;5.076;2023-03-20T01:59:42;101471.81;;;7.78;80.70
60974;BME280;46846;51.528;5.076;2023-03-20T02:02:13;101483.34;;;7.74;80.48
60974;BME280;46846;51.528;5.076;2023-03-20T02:04:41;101501.03;;;7.72;80.54
60974;BME280;46846;51.528;5.076;2023-03-20T02:07:07;101500.16;;;7.72;80.44
60974;BME280;46846;51.528;5.076;2023-03-20T02:09:35;101486.06;;;7.66;80.39
60974;BME280;46846;51.528;5.076;2023-03-20T02:12:01;101489.63;;;7.65;80.42
60974;BME280;46846;51.528;5.076;2023-03-20T02:14:27;101479.91;;;7.64;80.34
60974;BME280;46846;51.528;5.076;2023-03-20T02:16:52;101477.28;;;7.64;80.56
60974;BME280;46846;51.528;5.076;2023-03-20T02:19:28;101482.56;;;7.63;80.34
60974;BME280;46846;51.528;5.076;2023-03-20T02:40:16;101461.56;;;7.49;80.62
60974;BME280;46846;51.528;5.076;2023-03-20T02:45:21;101451.00;;;7.46;80.17
60974;BME280;46846;51.528;5.076;2023-03-20T02:47:57;101459.81;;;7.45;80.17
60974;BME280;46846;51.528;5.076;2023-03-20T02:58:22;101428.16;;;7.37;80.52
60974;BME280;46846;51.528;5.076;2023-03-20T03:01:01;101423.75;;;7.36;80.25
60974;BME280;46846;51.528;5.076;2023-03-20T03:03:55;101415.81;;;7.34;80.28
60974;BME280;46846;51.528;5.076;2023-03-20T03:06:32;101414.09;;;7.32;80.35
60974;BME280;46846;51.528;5.076;2023-03-20T03:09:22;101429.13;;;7.28;80.35
60974;BME280;46846;51.528;5.076;2023-03-20T03:11:55;101420.34;;;7.24;80.69
60974;BME280;46846;51.528;5.076;2023-03-20T03:14:42;101422.09;;;7.25;80.32
60974;BME280;46846;51.528;5.076;2023-03-20T03:17:10;101430.03;;;7.25;80.58
60974;BME280;46846;51.528;5.076;2023-03-20T03:19:39;101426.53;;;7.22;80.26
60974;BME280;46846;51.528;5.076;2023-03-20T03:22:07;101430.09;;;7.21;80.00
60974;BME280;46846;51.528;5.076;2023-03-20T03:24:35;101417.75;;;7.21;80.38
60974;BME280;46846;51.528;5.076;2023-03-20T03:27:05;101428.34;;;7.20;80.35
60974;BME280;46846;51.528;5.076;2023-03-20T03:29:35;101420.41;;;7.18;80.33
60974;BME280;46846;51.528;5.076;2023-03-20T03:32:06;101408.97;;;7.16;80.06
60974;BME280;46846;51.528;5.076;2023-03-20T03:34:32;101401.94;;;7.15;79.92
60974;BME280;46846;51.528;5.076;2023-03-20T03:37:16;101394.00;;;7.14;80.12
60974;BME280;46846;51.528;5.076;2023-03-20T03:40:06;101401.97;;;7.10;80.14
60974;BME280;46846;51.528;5.076;2023-03-20T03:42:42;101393.16;;;7.10;80.31
60974;BME280;46846;51.528;5.076;2023-03-20T03:45:14;101398.50;;;7.07;80.08
60974;BME280;46846;51.528;5.076;2023-03-20T03:47:54;101402.88;;;7.08;80.16
60974;BME280;46846;51.528;5.076;2023-03-20T03:50:26;101398.53;;;7.04;80.62
60974;BME280;46846;51.528;5.076;2023-03-20T03:52:54;101403.84;;;7.04;80.07
60974;BME280;46846;51.528;5.076;2023-03-20T03:55:25;101405.59;;;7.03;80.22
60974;BME280;46846;51.528;5.076;2023-03-20T03:57:57;101408.22;;;7.05;80.18
60974;BME280;46846;51.528;5.076;2023-03-20T04:00:25;101413.53;;;7.02;79.76
60974;BME280;46846;51.528;5.076;2023-03-20T04:02:54;101397.69;;;6.98;79.96
60974;BME280;46846;51.528;5.076;2023-03-20T04:05:20;101389.78;;;6.95;80.07
60974;BME280;46846;51.528;5.076;2023-03-20T04:07:51;101395.13;;;6.91;80.06
60974;BME280;46846;51.528;5.076;2023-03-20T04:10:17;101392.47;;;6.92;79.84
60974;BME280;46846;51.528;5.076;2023-03-20T04:12:43;101396.91;;;6.90;80.17
60974;BME280;46846;51.528;5.076;2023-03-20T04:15:10;101390.72;;;6.91;80.51
60974;BME280;46846;51.528;5.076;2023-03-20T04:17:36;101387.22;;;6.89;80.22
60974;BME280;46846;51.528;5.076;2023-03-20T04:20:02;101389.03;;;6.86;79.72
60974;BME280;46846;51.528;5.076;2023-03-20T04:22:28;101387.28;;;6.83;80.30
60974;BME280;46846;51.528;5.076;2023-03-20T04:24:53;101385.53;;;6.79;80.23
60974;BME280;46846;51.528;5.076;2023-03-20T04:27:18;101392.63;;;6.77;79.92
60974;BME280;46846;51.528;5.076;2023-03-20T04:29:44;101385.53;;;6.77;80.08
60974;BME280;46846;51.528;5.076;2023-03-20T04:32:09;101391.72;;;6.76;80.23
60974;BME280;46846;51.528;5.076;2023-03-20T04:34:35;101384.69;;;6.75;80.20
60974;BME280;46846;51.528;5.076;2023-03-20T04:37:00;101382.91;;;6.77;80.32
60974;BME280;46846;51.528;5.076;2023-03-20T04:39:26;101361.78;;;6.76;80.10
60974;BME280;46846;51.528;5.076;2023-03-20T04:41:52;101371.53;;;6.70;79.95
60974;BME280;46846;51.528;5.076;2023-03-20T04:44:17;101368.88;;;6.70;80.28
60974;BME280;46846;51.528;5.076;2023-03-20T04:46:43;101367.13;;;6.69;80.04
60974;BME280;46846;51.528;5.076;2023-03-20T04:49:08;101374.22;;;6.67;80.21
60974;BME280;46846;51.528;5.076;2023-03-20T04:51:33;101362.75;;;6.65;80.13
60974;BME280;46846;51.528;5.076;2023-03-20T04:53:59;101365.38;;;6.65;80.67
60974;BME280;46846;51.528;5.076;2023-03-20T04:56:24;101368.06;;;6.62;80.20
60974;BME280;46846;51.528;5.076;2023-03-20T04:58:50;101367.22;;;6.59;80.82
60974;BME280;46846;51.528;5.076;2023-03-20T05:01:15;101364.56;;;6.60;80.42
60974;BME280;46846;51.528;5.076;2023-03-20T05:03:40;101364.59;;;6.57;80.63
60974;BME280;46846;51.528;5.076;2023-03-20T05:06:06;101367.22;;;6.57;79.85
60974;BME280;46846;51.528;5.076;2023-03-20T05:08:31;101363.69;;;6.60;80.60
60974;BME280;46846;51.528;5.076;2023-03-20T05:10:57;101368.13;;;6.56;80.26
60974;BME280;46846;51.528;5.076;2023-03-20T05:13:22;101357.56;;;6.54;79.95
60974;BME280;46846;51.528;5.076;2023-03-20T05:15:47;101361.09;;;6.55;80.14
60974;BME280;46846;51.528;5.076;2023-03-20T05:18:13;101358.50;;;6.49;80.40
60974;BME280;46846;51.528;5.076;2023-03-20T05:20:38;101352.31;;;6.50;80.42
60974;BME280;46846;51.528;5.076;2023-03-20T05:23:04;101361.13;;;6.49;80.48
60974;BME280;46846;51.528;5.076;2023-03-20T05:25:29;101359.34;;;6.51;79.92
60974;BME280;46846;51.528;5.076;2023-03-20T05:27:55;101367.31;;;6.46;80.37
60974;BME280;46846;51.528;5.076;2023-03-20T05:30:20;101354.16;;;6.41;80.51
60974;BME280;46846;51.528;5.076;2023-03-20T05:32:50;101349.75;;;6.42;80.51
60974;BME280;46846;51.528;5.076;2023-03-20T05:35:16;101348.00;;;6.38;80.32
60974;BME280;46846;51.528;5.076;2023-03-20T05:37:42;101344.47;;;6.40;80.49
60974;BME280;46846;51.528;5.076;2023-03-20T05:40:11;101345.31;;;6.42;80.27
60974;BME280;46846;51.528;5.076;2023-03-20T05:42:37;101347.13;;;6.40;80.05
60974;BME280;46846;51.528;5.076;2023-03-20T05:45:03;101341.88;;;6.36;80.47
60974;BME280;46846;51.528;5.076;2023-03-20T05:47:28;101351.56;;;6.37;80.06
60974;BME280;46846;51.528;5.076;2023-03-20T05:49:54;101358.63;;;6.36;80.45
60974;BME280;46846;51.528;5.076;2023-03-20T05:52:19;101360.38;;;6.36;80.42
60974;BME280;46846;51.528;5.076;2023-03-20T05:54:45;101363.06;;;6.33;80.22
60974;BME280;46846;51.528;5.076;2023-03-20T05:57:11;101369.25;;;6.30;80.47
60974;BME280;46846;51.528;5.076;2023-03-20T05:59:36;101373.63;;;6.31;80.37
60974;BME280;46846;51.528;5.076;2023-03-20T06:02:02;101380.66;;;6.32;80.08
60974;BME280;46846;51.528;5.076;2023-03-20T06:04:27;101387.75;;;6.30;80.15
60974;BME280;46846;51.528;5.076;2023-03-20T06:06:52;101385.09;;;6.28;80.10
60974;BME280;46846;51.528;5.076;2023-03-20T06:09:18;101385.09;;;6.27;80.26
60974;BME280;46846;51.528;5.076;2023-03-20T06:11:43;101383.34;;;6.24;80.84
60974;BME280;46846;51.528;5.076;2023-03-20T06:14:08;101385.13;;;6.25;80.33
60974;BME280;46846;51.528;5.076;2023-03-20T06:16:34;101396.59;;;6.21;80.30
60974;BME280;46846;51.528;5.076;2023-03-20T06:18:59;101394.84;;;6.22;80.34
60974;BME280;46846;51.528;5.076;2023-03-20T06:21:25;101393.97;;;6.23;80.29
60974;BME280;46846;51.528;5.076;2023-03-20T06:23:50;101398.34;;;6.24;80.13
60974;BME280;46846;51.528;5.076;2023-03-20T06:26:16;101393.06;;;6.24;80.23
60974;BME280;46846;51.528;5.076;2023-03-20T06:28:41;101401.91;;;6.20;79.84
60974;BME280;46846;51.528;5.076;2023-03-20T06:31:06;101403.69;;;6.19;80.52
60974;BME280;46846;51.528;5.076;2023-03-20T06:33:34;101400.16;;;6.17;80.20
60974;BME280;46846;51.528;5.076;2023-03-20T06:35:59;101404.56;;;6.18;80.54
60974;BME280;46846;51.528;5.076;2023-03-20T06:38:24;101405.44;;;6.17;80.20
60974;BME280;46846;51.528;5.076;2023-03-20T06:40:50;101408.97;;;6.16;80.34
60974;BME280;46846;51.528;5.076;2023-03-20T06:43:15;101408.06;;;6.17;80.16
60974;BME280;46846;51.528;5.076;2023-03-20T06:45:41;101405.47;;;6.15;80.14
60974;BME280;46846;51.528;5.076;2023-03-20T06:48:09;101414.28;;;6.14;79.88
60974;BME280;46846;51.528;5.076;2023-03-20T06:50:35;101423.09;;;6.12;80.26
60974;BME280;46846;51.528;5.076;2023-03-20T06:53:01;101424.84;;;6.13;79.86
60974;BME280;46846;51.528;5.076;2023-03-20T06:55:26;101428.38;;;6.09;80.69
60974;BME280;46846;51.528;5.076;2023-03-20T06:57:52;101433.66;;;6.12;80.50
60974;BME280;46846;51.528;5.076;2023-03-20T07:00:18;101439.78;;;6.17;80.08
60974;BME280;46846;51.528;5.076;2023-03-20T07:02:44;101440.69;;;6.18;80.07
60974;BME280;46846;51.528;5.076;2023-03-20T07:05:10;101434.50;;;6.19;79.76
60974;BME280;46846;51.528;5.076;2023-03-20T07:07:35;101434.53;;;6.15;80.01
60974;BME280;46846;51.528;5.076;2023-03-20T07:10:01;101448.63;;;6.13;79.85
60974;BME280;46846;51.528;5.076;2023-03-20T07:12:26;101445.09;;;6.12;80.09
60974;BME280;46846;51.528;5.076;2023-03-20T07:14:53;101445.09;;;6.12;80.09
60974;BME280;46846;51.528;5.076;2023-03-20T07:17:19;101446.88;;;6.10;80.45
60974;BME280;46846;51.528;5.076;2023-03-20T07:19:44;101455.66;;;6.12;80.44
60974;BME280;46846;51.528;5.076;2023-03-20T07:22:26;101447.75;;;6.14;80.02
60974;BME280;46846;51.528;5.076;2023-03-20T07:24:52;101456.56;;;6.11;80.49
60974;BME280;46846;51.528;5.076;2023-03-20T07:27:17;101459.19;;;6.10;80.23
60974;BME280;46846;51.528;5.076;2023-03-20T07:29:43;101458.34;;;6.09;80.42
60974;BME280;46846;51.528;5.076;2023-03-20T07:32:09;101458.31;;;6.12;80.09
60974;BME280;46846;51.528;5.076;2023-03-20T07:34:35;101458.34;;;6.09;80.70
60974;BME280;46846;51.528;5.076;2023-03-20T07:37:00;101459.22;;;6.07;80.58
60974;BME280;46846;51.528;5.076;2023-03-20T07:39:26;101453.97;;;6.04;80.72
60974;BME280;46846;51.528;5.076;2023-03-20T07:41:52;101461.91;;;6.02;80.86
60974;BME280;46846;51.528;5.076;2023-03-20T07:44:17;101451.34;;;5.99;80.88
60974;BME280;46846;51.528;5.076;2023-03-20T07:46:44;101446.94;;;5.96;80.40
60974;BME280;46846;51.528;5.076;2023-03-20T07:49:12;101448.69;;;5.96;80.97
60974;BME280;46846;51.528;5.076;2023-03-20T07:51:38;101452.22;;;5.95;80.57
60974;BME280;46846;51.528;5.076;2023-03-20T07:54:04;101449.56;;;6.01;81.02
60974;BME280;46846;51.528;5.076;2023-03-20T07:56:30;101449.56;;;5.98;80.52
60974;BME280;46846;51.528;5.076;2023-03-20T07:58:55;101451.34;;;5.96;80.92
60974;BME280;46846;51.528;5.076;2023-03-20T08:01:21;101448.69;;;5.97;80.80
60974;BME280;46846;51.528;5.076;2023-03-20T08:03:46;101447.81;;;6.00;80.76
60974;BME280;46846;51.528;5.076;2023-03-20T08:06:12;101446.06;;;5.96;80.54
60974;BME280;46846;51.528;5.076;2023-03-20T08:08:37;101451.34;;;5.96;80.94
60974;BME280;46846;51.528;5.076;2023-03-20T08:11:03;101449.59;;;5.95;81.34
60974;BME280;46846;51.528;5.076;2023-03-20T08:13:28;101437.28;;;5.95;80.72
60974;BME280;46846;51.528;5.076;2023-03-20T08:15:53;101451.34;;;5.96;80.62
60974;BME280;46846;51.528;5.076;2023-03-20T08:18:19;101447.81;;;5.91;81.39
60974;BME280;46846;51.528;5.076;2023-03-20T08:20:46;101452.22;;;5.93;80.93
60974;BME280;46846;51.528;5.076;2023-03-20T08:23:12;101450.47;;;5.92;80.93
60974;BME280;46846;51.528;5.076;2023-03-20T08:25:37;101451.38;;;5.93;80.76
60974;BME280;46846;51.528;5.076;2023-03-20T08:28:03;101449.59;;;5.93;80.92
60974;BME280;46846;51.528;5.076;2023-03-20T08:30:28;101459.28;;;5.89;80.96
60974;BME280;46846;51.528;5.076;2023-03-20T08:32:54;101461.06;;;5.89;81.19
60974;BME280;46846;51.528;5.076;2023-03-20T08:35:19;101461.09;;;5.84;81.03
60974;BME280;46846;51.528;5.076;2023-03-20T08:37:45;101461.94;;;5.83;81.58
60974;BME280;46846;51.528;5.076;2023-03-20T08:40:11;101460.19;;;5.84;81.32
60974;BME280;46846;51.528;5.076;2023-03-20T08:42:36;101467.25;;;5.86;81.00
60974;BME280;46846;51.528;5.076;2023-03-20T08:45:02;101464.59;;;5.85;81.09
60974;BME280;46846;51.528;5.076;2023-03-20T08:47:27;101467.22;;;5.89;80.65
60974;BME280;46846;51.528;5.076;2023-03-20T08:49:52;101461.06;;;5.86;80.97
60974;BME280;46846;51.528;5.076;2023-03-20T08:52:18;101465.47;;;5.88;81.28
60974;BME280;46846;51.528;5.076;2023-03-20T08:54:43;101460.19;;;5.88;81.37
60974;BME280;46846;51.528;5.076;2023-03-20T08:57:09;101456.69;;;5.88;81.44
60974;BME280;46846;51.528;5.076;2023-03-20T08:59:35;101463.72;;;5.87;81.21
60974;BME280;46846;51.528;5.076;2023-03-20T09:02:00;101457.53;;;5.88;81.23
60974;BME280;46846;51.528;5.076;2023-03-20T09:04:25;101459.31;;;5.88;81.40
60974;BME280;46846;51.528;5.076;2023-03-20T09:06:52;101460.19;;;5.90;81.16
60974;BME280;46846;51.528;5.076;2023-03-20T09:09:17;101465.47;;;5.88;80.94
60974;BME280;46846;51.528;5.076;2023-03-20T09:11:45;101464.56;;;5.91;81.37
60974;BME280;46846;51.528;5.076;2023-03-20T09:14:11;101461.03;;;5.92;81.27
60974;BME280;46846;51.528;5.076;2023-03-20T09:16:36;101463.69;;;5.94;81.11
60974;BME280;46846;51.528;5.076;2023-03-20T09:19:02;101465.44;;;5.96;81.16
60974;BME280;46846;51.528;5.076;2023-03-20T09:21:27;101466.31;;;5.92;81.29
60974;BME280;46846;51.528;5.076;2023-03-20T09:23:53;101468.06;;;5.93;81.25
60974;BME280;46846;51.528;5.076;2023-03-20T09:26:18;101468.09;;;5.92;81.39
60974;BME280;46846;51.528;5.076;2023-03-20T09:28:44;101464.53;;;5.94;81.65
60974;BME280;46846;51.528;5.076;2023-03-20T09:31:09;101470.72;;;5.96;81.80
60974;BME280;46846;51.528;5.076;2023-03-20T09:33:36;101464.56;;;5.93;81.71
60974;BME280;46846;51.528;5.076;2023-03-20T09:36:01;101468.09;;;5.90;81.63
60974;BME280;46846;51.528;5.076;2023-03-20T09:38:27;101454.91;;;5.90;81.40
60974;BME280;46846;51.528;5.076;2023-03-20T09:40:53;101460.16;;;5.95;81.96
60974;BME280;46846;51.528;5.076;2023-03-20T09:46:19;101453.13;;;5.95;81.49
60974;BME280;46846;51.528;5.076;2023-03-20T09:48:54;101451.34;;;5.96;81.78
60974;BME280;46846;51.528;5.076;2023-03-20T09:51:36;101454.00;;;5.93;81.94
60974;BME280;46846;51.528;5.076;2023-03-20T09:54:28;101454.88;;;5.88;81.68
60974;BME280;46846;51.528;5.076;2023-03-20T09:56:54;101463.69;;;5.86;81.93
60974;BME280;46846;51.528;5.076;2023-03-20T09:59:23;101455.78;;;5.89;81.88
60974;BME280;46846;51.528;5.076;2023-03-20T10:01:52;101454.91;;;5.90;82.18
60974;BME280;46846;51.528;5.076;2023-03-20T10:04:20;101451.38;;;5.86;82.32
60974;BME280;46846;51.528;5.076;2023-03-20T10:06:48;101448.72;;;5.89;82.44
60974;BME280;46846;51.528;5.076;2023-03-20T10:09:16;101438.19;;;5.85;82.56
60974;BME280;46846;51.528;5.076;2023-03-20T10:27:43;101434.63;;;5.91;82.45
60974;BME280;46846;51.528;5.076;2023-03-20T10:30:28;101443.44;;;5.93;82.40
60974;BME280;46846;51.528;5.076;2023-03-20T10:39:09;101439.88;;;6.03;82.31
60974;BME280;46846;51.528;5.076;2023-03-20T10:41:39;101439.03;;;5.95;82.17
60974;BME280;46846;51.528;5.076;2023-03-20T10:44:14;101435.47;;;5.97;82.18
60974;BME280;46846;51.528;5.076;2023-03-20T10:46:43;101438.97;;;5.98;82.59
60974;BME280;46846;51.528;5.076;2023-03-20T10:51:53;101429.34;;;5.95;82.18
60974;BME280;46846;51.528;5.076;2023-03-20T10:54:32;101428.41;;;5.99;82.24
60974;BME280;46846;51.528;5.076;2023-03-20T10:57:02;101423.13;;;6.01;82.49
60974;BME280;46846;51.528;5.076;2023-03-20T10:59:40;101420.50;;;6.02;82.46
60974;BME280;46846;51.528;5.076;2023-03-20T11:02:11;101420.50;;;6.07;82.16
60974;BME280;46846;51.528;5.076;2023-03-20T11:04:37;101416.06;;;6.01;82.13
60974;BME280;46846;51.528;5.076;2023-03-20T11:07:24;101424.00;;;6.06;82.31
60974;BME280;46846;51.528;5.076;2023-03-20T11:15:34;101401.06;;;6.10;82.59
60974;BME280;46846;51.528;5.076;2023-03-20T11:18:04;101396.69;;;6.10;82.98
60974;BME280;46846;51.528;5.076;2023-03-20T11:20:35;101394.03;;;6.09;82.38
60974;BME280;46846;51.528;5.076;2023-03-20T11:23:04;101392.25;;;6.12;82.06
60974;BME280;46846;51.528;5.076;2023-03-20T11:25:32;101392.25;;;6.15;82.32
60974;BME280;46846;51.528;5.076;2023-03-20T11:28:40;101384.28;;;6.19;81.97
60974;BME280;46846;51.528;5.076;2023-03-20T11:31:06;101393.09;;;6.18;81.77
60974;BME280;46846;51.528;5.076;2023-03-20T11:33:44;101381.66;;;6.17;82.10
60974;BME280;46846;51.528;5.076;2023-03-20T11:38:46;101377.22;;;6.22;81.79
60974;BME280;46846;51.528;5.076;2023-03-20T11:41:26;101368.34;;;6.28;82.59
60974;BME280;46846;51.528;5.076;2023-03-20T11:43:52;101365.72;;;6.29;81.97
60974;BME280;46846;51.528;5.076;2023-03-20T11:46:20;101364.84;;;6.24;81.88
60974;BME280;46846;51.528;5.076;2023-03-20T11:49:18;101374.56;;;6.24;81.81
60974;BME280;46846;51.528;5.076;2023-03-20T11:51:45;101375.44;;;6.26;82.11
60974;BME280;46846;51.528;5.076;2023-03-20T11:54:16;101368.34;;;6.31;81.65
60974;BME280;46846;51.528;5.076;2023-03-20T11:56:53;101369.19;;;6.36;81.82
60974;BME280;46846;51.528;5.076;2023-03-20T11:59:19;101376.22;;;6.36;81.93
60974;BME280;46846;51.528;5.076;2023-03-20T12:01:50;101372.69;;;6.35;82.37
60974;BME280;46846;51.528;5.076;2023-03-20T12:04:26;101374.41;;;6.46;83.24
60974;BME280;46846;51.528;5.076;2023-03-20T12:06:59;101371.75;;;6.44;82.79
60974;BME280;46846;51.528;5.076;2023-03-20T12:12:53;101363.78;;;6.47;81.95
60974;BME280;46846;51.528;5.076;2023-03-20T12:25:24;101365.53;;;6.53;82.11
60974;BME280;46846;51.528;5.076;2023-03-20T12:28:04;101352.31;;;6.53;81.93
60974;BME280;46846;51.528;5.076;2023-03-20T12:30:57;101350.50;;;6.55;82.07
60974;BME280;46846;51.528;5.076;2023-03-20T12:36:03;101352.25;;;6.54;81.75
60974;BME280;46846;51.528;5.076;2023-03-20T12:38:34;101345.22;;;6.55;82.37
60974;BME280;46846;51.528;5.076;2023-03-20T12:41:29;101353.16;;;6.56;81.83
60974;BME280;46846;51.528;5.076;2023-03-20T12:47:17;101332.81;;;6.63;82.27
60974;BME280;46846;51.528;5.076;2023-03-20T12:49:58;101331.91;;;6.66;81.91
60974;BME280;46846;51.528;5.076;2023-03-20T12:52:32;101325.72;;;6.67;82.04
60974;BME280;46846;51.528;5.076;2023-03-20T12:55:24;101323.97;;;6.67;82.31
60974;BME280;46846;51.528;5.076;2023-03-20T13:01:02;101317.78;;;6.68;82.11
60974;BME280;46846;51.528;5.076;2023-03-20T13:06:27;101317.78;;;6.67;82.54
60974;BME280;46846;51.528;5.076;2023-03-20T13:19:44;101309.72;;;6.79;82.02
60974;BME280;46846;51.528;5.076;2023-03-20T13:22:37;101318.50;;;6.83;81.84
60974;BME280;46846;51.528;5.076;2023-03-20T13:25:51;101315.81;;;6.84;82.13
60974;BME280;46846;51.528;5.076;2023-03-20T13:33:42;101312.13;;;6.98;81.70
60974;BME280;46846;51.528;5.076;2023-03-20T13:39:32;101305.09;;;6.97;81.92
60974;BME280;46846;51.528;5.076;2023-03-20T13:42:00;101305.09;;;6.98;82.19
60974;BME280;46846;51.528;5.076;2023-03-20T13:44:28;101304.19;;;7.00;82.18
60974;BME280;46846;51.528;5.076;2023-03-20T13:47:02;101298.84;;;7.04;81.76
60974;BME280;46846;51.528;5.076;2023-03-20T13:49:37;101301.50;;;7.03;81.33
60974;BME280;46846;51.528;5.076;2023-03-20T13:52:08;101292.66;;;7.05;81.66
60974;BME280;46846;51.528;5.076;2023-03-20T13:57:42;101298.84;;;7.03;81.95
60974;BME280;46846;51.528;5.076;2023-03-20T14:00:27;101299.63;;;7.11;81.80
60974;BME280;46846;51.528;5.076;2023-03-20T14:05:47;101289.09;;;7.08;82.37
60974;BME280;46846;51.528;5.076;2023-03-20T14:10:44;101287.28;;;7.13;82.00
60974;BME280;46846;51.528;5.076;2023-03-20T14:13:13;101282.91;;;7.10;82.18
60974;BME280;46846;51.528;5.076;2023-03-20T14:15:48;101287.28;;;7.13;82.03
60974;BME280;46846;51.528;5.076;2023-03-20T14:18:16;101288.06;;;7.18;82.35
60974;BME280;46846;51.528;5.076;2023-03-20T14:20:43;101281.03;;;7.17;81.98
60974;BME280;46846;51.528;5.076;2023-03-20T14:23:20;101278.38;;;7.19;81.99
60974;BME280;46846;51.528;5.076;2023-03-20T14:25:53;101277.47;;;7.20;81.80
60974;BME280;46846;51.528;5.076;2023-03-20T14:30:46;101268.63;;;7.21;82.14
60974;BME280;46846;51.528;5.076;2023-03-20T14:35:44;101266.81;;;7.24;82.12
60974;BME280;46846;51.528;5.076;2023-03-20T14:38:23;101261.50;;;7.26;81.75
60974;BME280;46846;51.528;5.076;2023-03-20T14:40:58;101268.56;;;7.27;81.90
60974;BME280;46846;51.528;5.076;2023-03-20T14:46:41;101265.91;;;7.25;81.76
60974;BME280;46846;51.528;5.076;2023-03-20T14:52:09;101253.56;;;7.26;81.77
60974;BME280;46846;51.528;5.076;2023-03-20T14:54:39;101259.75;;;7.27;82.08
60974;BME280;46846;51.528;5.076;2023-03-20T14:57:16;101264.09;;;7.32;81.76
60974;BME280;46846;51.528;5.076;2023-03-20T14:59:42;101262.41;;;7.27;81.82
60974;BME280;46846;51.528;5.076;2023-03-20T15:02:26;101253.50;;;7.32;81.68
60974;BME280;46846;51.528;5.076;2023-03-20T15:04:53;101259.69;;;7.30;81.90
60974;BME280;46846;51.528;5.076;2023-03-20T15:09:47;101254.41;;;7.30;81.97
60974;BME280;46846;51.528;5.076;2023-03-20T15:12:16;101242.94;;;7.29;82.08
60974;BME280;46846;51.528;5.076;2023-03-20T15:14:48;101244.59;;;7.36;81.65
60974;BME280;46846;51.528;5.076;2023-03-20T15:17:33;101245.41;;;7.40;81.91
60974;BME280;46846;51.528;5.076;2023-03-20T15:20:03;101246.31;;;7.41;81.25
60974;BME280;46846;51.528;5.076;2023-03-20T15:22:28;101241.03;;;7.39;81.27
60974;BME280;46846;51.528;5.076;2023-03-20T15:24:55;101237.47;;;7.40;81.62
60974;BME280;46846;51.528;5.076;2023-03-20T15:27:25;101236.53;;;7.46;81.99
60974;BME280;46846;51.528;5.076;2023-03-20T15:29:54;101233.97;;;7.39;81.79
60974;BME280;46846;51.528;5.076;2023-03-20T15:32:21;101237.47;;;7.42;81.80
60974;BME280;46846;51.528;5.076;2023-03-20T15:34:48;101228.66;;;7.41;81.58
60974;BME280;46846;51.528;5.076;2023-03-20T15:37:20;101234.81;;;7.42;81.99